createdAt,value
2023-03-06T00:01:00.898Z,6.90
2023-03-06T00:03:28.348Z,4.07
2023-03-06T00:05:57.880Z,6.88
2023-03-06T00:08:27.272Z,8.45
2023-03-06T00:10:55.118Z,5.75
2023-03-06T00:13:22.491Z,2.90
2023-03-06T00:15:50.132Z,4.63
2023-03-06T00:18:17.289Z,3.03
2023-03-06T00:20:44.814Z,4.38
2023-03-06T00:23:12.131Z,5.55
2023-03-06T00:25:44.396Z,4.97
2023-03-06T00:28:12.384Z,4.25
2023-03-06T00:30:39.572Z,8.02
2023-03-06T00:33:06.493Z,6.38
2023-03-06T00:35:33.435Z,4.43
2023-03-06T00:38:00.769Z,4.88
2023-03-06T00:40:27.683Z,4.45
2023-03-06T00:42:54.616Z,4.07
2023-03-06T00:45:21.616Z,4.43
2023-03-06T00:47:48.548Z,5.32
2023-03-06T00:50:15.513Z,4.95
2023-03-06T00:52:42.432Z,11.63
2023-03-06T00:55:10.921Z,4.18
2023-03-06T00:57:38.012Z,6.43
2023-03-06T01:00:07.892Z,5.32
2023-03-06T01:02:34.935Z,5.72
2023-03-06T01:05:02.170Z,7.32
2023-03-06T01:07:29.728Z,4.50
2023-03-06T01:09:58.000Z,5.47
2023-03-06T01:12:24.929Z,7.82
2023-03-06T01:14:51.851Z,7.50
2023-03-06T01:17:18.786Z,5.75
2023-03-06T01:19:45.727Z,4.60
2023-03-06T01:22:14.011Z,6.78
2023-03-06T01:24:40.936Z,7.38
2023-03-06T01:27:07.861Z,7.93
2023-03-06T01:29:34.758Z,7.28
2023-03-06T01:32:01.739Z,5.13
2023-03-06T01:34:28.811Z,8.77
2023-03-06T01:36:55.705Z,9.50
2023-03-06T01:39:22.681Z,8.07
2023-03-06T01:41:49.692Z,9.43
2023-03-06T01:44:16.689Z,5.13
2023-03-06T01:46:46.960Z,6.30
2023-03-06T01:49:34.926Z,5.97
2023-03-06T01:52:15.965Z,5.90
2023-03-06T01:55:14.214Z,7.38
2023-03-06T01:57:53.366Z,5.50
2023-03-06T02:00:27.531Z,5.75
2023-03-06T02:03:09.660Z,5.43
2023-03-06T02:05:39.950Z,7.82
2023-03-06T02:08:12.399Z,7.85
2023-03-06T02:10:59.476Z,6.82
2023-03-06T02:13:26.673Z,9.35
2023-03-06T02:15:53.704Z,8.55
2023-03-06T02:18:20.608Z,7.68
2023-03-06T02:21:00.852Z,11.10
2023-03-06T02:24:02.147Z,8.35
2023-03-06T02:26:30.141Z,8.63
2023-03-06T02:28:59.169Z,8.40
2023-03-06T02:31:31.868Z,10.82
2023-03-06T02:34:28.852Z,13.07
2023-03-06T02:39:33.290Z,11.07
2023-03-06T02:42:00.345Z,10.30
2023-03-06T02:44:31.491Z,13.43
2023-03-06T02:46:58.770Z,14.80
2023-03-06T02:49:26.592Z,14.43
2023-03-06T02:51:53.824Z,15.52
2023-03-06T02:54:20.771Z,11.60
2023-03-06T02:56:48.077Z,15.43
2023-03-06T02:59:15.045Z,12.65
2023-03-06T03:01:41.990Z,12.50
2023-03-06T03:04:09.195Z,11.50
2023-03-06T03:06:37.427Z,12.98
2023-03-06T03:09:04.531Z,11.82
2023-03-06T03:11:31.545Z,18.52
2023-03-06T03:13:58.586Z,17.23
2023-03-06T03:16:27.988Z,11.75
2023-03-06T03:18:58.360Z,18.70
2023-03-06T03:21:26.340Z,15.85
2023-03-06T03:23:54.871Z,14.52
2023-03-06T03:26:22.771Z,19.17
2023-03-06T03:29:05.085Z,16.45
2023-03-06T03:31:32.595Z,15.98
2023-03-06T03:34:00.778Z,17.15
2023-03-06T03:36:30.595Z,17.40
2023-03-06T03:38:58.197Z,18.13
2023-03-06T03:41:25.857Z,17.02
2023-03-06T03:43:52.809Z,17.88
2023-03-06T03:46:21.556Z,20.63
2023-03-06T03:48:49.888Z,19.67
2023-03-06T03:51:17.346Z,19.23
2023-03-06T03:53:49.354Z,22.90
2023-03-06T03:56:19.871Z,25.27
2023-03-06T03:58:55.199Z,23.00
2023-03-06T04:01:23.049Z,20.15
2023-03-06T04:03:49.963Z,17.73
2023-03-06T04:06:18.319Z,15.85
2023-03-06T04:08:46.205Z,15.27
2023-03-06T04:11:13.826Z,16.90
2023-03-06T04:13:40.846Z,19.67
2023-03-06T04:16:08.548Z,19.02
2023-03-06T04:18:37.950Z,18.52
2023-03-06T04:21:06.766Z,18.35
2023-03-06T04:23:34.008Z,16.58
2023-03-06T04:26:01.004Z,18.67
2023-03-06T04:28:28.743Z,18.27
2023-03-06T04:30:56.617Z,16.95
2023-03-06T04:33:23.745Z,16.73
2023-03-06T04:35:50.757Z,19.85
2023-03-06T04:38:22.984Z,23.45
2023-03-06T04:40:50.156Z,16.73
2023-03-06T04:43:17.381Z,20.25
2023-03-06T04:45:44.634Z,21.33
2023-03-06T04:48:18.818Z,19.65
2023-03-06T04:50:46.125Z,17.33
2023-03-06T04:53:14.528Z,17.25
2023-03-06T04:55:41.521Z,18.02
2023-03-06T04:58:08.424Z,14.88
2023-03-06T05:00:35.402Z,24.30
2023-03-06T05:03:02.560Z,21.40
2023-03-06T05:05:30.201Z,22.75
2023-03-06T05:07:57.269Z,19.52
2023-03-06T05:10:24.278Z,16.73
2023-03-06T05:12:51.405Z,17.10
2023-03-06T05:15:19.551Z,15.65
2023-03-06T05:17:47.667Z,22.88
2023-03-06T05:20:15.888Z,23.70
2023-03-06T05:22:43.369Z,17.70
2023-03-06T05:25:10.878Z,21.42
2023-03-06T05:27:38.031Z,21.40
2023-03-06T05:30:06.686Z,20.35
2023-03-06T05:32:35.577Z,15.40
2023-03-06T05:35:04.229Z,16.73
2023-03-06T05:37:32.058Z,21.55
2023-03-06T05:40:00.284Z,21.38
2023-03-06T05:42:28.767Z,21.17
2023-03-06T05:44:55.769Z,21.98
2023-03-06T05:47:22.656Z,21.80
2023-03-06T05:49:49.697Z,15.48
2023-03-06T05:52:17.548Z,21.77
2023-03-06T05:54:44.709Z,22.65
2023-03-06T05:57:11.707Z,16.85
2023-03-06T05:59:38.611Z,23.73
2023-03-06T06:02:05.788Z,20.40
2023-03-06T06:04:32.845Z,22.05
2023-03-06T06:07:01.239Z,22.65
2023-03-06T06:09:29.248Z,23.30
2023-03-06T06:12:01.487Z,22.08
2023-03-06T06:14:29.856Z,22.83
2023-03-06T06:16:56.825Z,24.60
2023-03-06T06:19:24.065Z,17.48
2023-03-06T06:21:53.944Z,21.50
2023-03-06T06:24:26.517Z,19.20
2023-03-06T06:26:56.171Z,20.02
2023-03-06T06:29:23.785Z,19.38
2023-03-06T06:31:51.475Z,20.70
2023-03-06T06:34:19.329Z,19.50
2023-03-06T06:36:46.891Z,22.15
2023-03-06T06:39:15.863Z,19.33
2023-03-06T06:41:57.294Z,21.25
2023-03-06T06:44:29.438Z,21.23
2023-03-06T06:47:21.922Z,17.13
2023-03-06T06:49:43.600Z,18.17
2023-03-06T06:52:11.024Z,17.13
2023-03-06T06:54:37.962Z,21.23
2023-03-06T06:57:05.055Z,19.13
2023-03-06T06:59:31.955Z,15.38
2023-03-06T07:01:58.811Z,14.52
2023-03-06T07:04:25.785Z,12.02
2023-03-06T07:06:56.441Z,14.35
2023-03-06T07:09:23.738Z,14.20
2023-03-06T07:11:50.884Z,14.70
2023-03-06T07:14:17.923Z,13.15
2023-03-06T07:16:44.849Z,14.50
2023-03-06T07:19:11.772Z,12.55
2023-03-06T07:21:38.696Z,12.07
2023-03-06T07:24:05.852Z,15.25
2023-03-06T07:26:34.624Z,10.50
2023-03-06T07:29:03.612Z,10.85
2023-03-06T07:31:30.905Z,13.02
2023-03-06T07:33:57.941Z,11.82
2023-03-06T07:36:25.012Z,10.48
2023-03-06T07:38:51.945Z,10.88
2023-03-06T07:41:21.786Z,11.40
2023-03-06T07:43:50.178Z,11.68
2023-03-06T07:46:18.085Z,9.23
2023-03-06T07:48:45.222Z,8.68
2023-03-06T07:51:19.984Z,7.47
2023-03-06T07:53:48.217Z,14.82
2023-03-06T07:56:15.882Z,6.75
2023-03-06T07:58:46.060Z,6.70
2023-03-06T08:01:17.258Z,6.45
2023-03-06T08:03:44.733Z,6.35
2023-03-06T08:06:23.723Z,7.63
2023-03-06T08:08:53.763Z,6.18
2023-03-06T08:11:24.765Z,8.90
2023-03-06T08:13:53.720Z,5.35
2023-03-06T08:16:22.904Z,10.07
2023-03-06T08:18:50.241Z,4.60
2023-03-06T08:21:22.086Z,3.85
2023-03-06T08:23:49.815Z,4.72
2023-03-06T08:26:20.354Z,3.08
2023-03-06T08:28:47.884Z,5.20
2023-03-06T08:31:28.860Z,2.92
2023-03-06T08:33:58.086Z,2.47
2023-03-06T08:36:25.232Z,3.15
2023-03-06T08:38:52.828Z,2.28
2023-03-06T08:41:20.534Z,1.92
2023-03-06T08:43:48.256Z,1.52
2023-03-06T08:46:15.917Z,2.97
2023-03-06T08:48:42.891Z,1.58
2023-03-06T08:51:10.598Z,1.33
2023-03-06T08:53:43.569Z,1.70
2023-03-06T08:56:21.163Z,1.23
2023-03-06T08:58:48.616Z,2.88
2023-03-06T09:01:28.641Z,2.25
2023-03-06T09:03:58.524Z,2.22
2023-03-06T09:06:27.219Z,0.73
2023-03-06T09:08:55.162Z,0.80
2023-03-06T09:11:25.271Z,0.63
2023-03-06T09:13:53.484Z,1.38
2023-03-06T09:16:20.572Z,3.53
2023-03-06T09:18:49.748Z,0.95
2023-03-06T09:21:16.999Z,0.70
2023-03-06T09:23:43.844Z,0.77
2023-03-06T09:26:12.764Z,1.23
2023-03-06T09:28:40.501Z,2.05
2023-03-06T09:31:13.228Z,0.55
2023-03-06T09:33:40.349Z,5.85
2023-03-06T09:36:10.542Z,0.98
2023-03-06T09:38:37.506Z,2.60
2023-03-06T09:41:12.588Z,4.93
2023-03-06T09:43:48.958Z,2.00
2023-03-06T09:46:38.357Z,1.35
2023-03-06T09:49:38.509Z,0.77
2023-03-06T09:52:24.450Z,1.30
2023-03-06T09:54:58.009Z,0.70
2023-03-06T09:57:40.033Z,0.70
2023-03-06T10:00:20.877Z,2.08
2023-03-06T10:03:00.916Z,1.20
2023-03-06T10:05:36.328Z,3.72
2023-03-06T10:08:25.185Z,0.85
2023-03-06T10:11:03.681Z,2.15
2023-03-06T10:13:44.046Z,0.77
2023-03-06T10:16:26.123Z,0.77
2023-03-06T10:18:55.528Z,2.42
2023-03-06T10:22:02.591Z,3.50
2023-03-06T10:25:04.983Z,0.60
2023-03-06T10:27:48.252Z,1.45
2023-03-06T10:30:45.796Z,2.20
2023-03-06T10:33:30.498Z,0.50
2023-03-06T10:35:57.729Z,1.58
2023-03-06T10:38:31.912Z,5.68
2023-03-06T10:41:08.574Z,1.30
2023-03-06T10:43:44.505Z,0.60
2023-03-06T10:46:14.665Z,0.40
2023-03-06T10:48:42.571Z,0.43
2023-03-06T10:51:19.960Z,0.95
2023-03-06T10:54:18.897Z,0.82
2023-03-06T10:56:47.629Z,0.35
2023-03-06T10:59:22.976Z,1.02
2023-03-06T11:01:53.953Z,0.80
2023-03-06T11:04:21.127Z,0.30
2023-03-06T11:06:48.190Z,1.30
2023-03-06T11:09:27.106Z,0.30
2023-03-06T11:12:38.093Z,0.20
2023-03-06T11:15:23.558Z,0.30
2023-03-06T11:18:16.666Z,0.32
2023-03-06T11:20:52.532Z,0.28
2023-03-06T11:23:47.309Z,0.47
2023-03-06T11:26:16.889Z,0.10
2023-03-06T11:29:15.235Z,4.65
2023-03-06T11:31:56.184Z,0.63
2023-03-06T11:34:38.956Z,1.55
2023-03-06T11:37:21.738Z,0.52
2023-03-06T11:40:07.793Z,2.03
2023-03-06T11:42:40.911Z,3.45
2023-03-06T11:45:46.680Z,0.43
2023-03-06T11:48:17.502Z,0.10
2023-03-06T11:50:55.508Z,0.70
2023-03-06T11:53:36.627Z,0.82
2023-03-06T11:56:22.836Z,0.25
2023-03-06T12:02:33.652Z,0.47
2023-03-06T12:05:25.301Z,1.48
2023-03-06T12:08:31.209Z,0.65
2023-03-06T12:11:12.525Z,0.25
2023-03-06T12:13:58.936Z,0.32
2023-03-06T12:16:45.071Z,0.20
2023-03-06T12:19:49.934Z,0.35
2023-03-06T12:22:57.779Z,0.20
2023-03-06T12:25:40.483Z,0.50
2023-03-06T12:28:32.966Z,2.15
2023-03-06T12:31:24.824Z,0.70
2023-03-06T12:34:13.925Z,0.40
2023-03-06T12:37:11.947Z,0.47
2023-03-06T12:39:57.069Z,0.50
2023-03-06T12:43:01.940Z,1.20
2023-03-06T12:45:39.842Z,0.82
2023-03-06T12:48:18.137Z,2.63
2023-03-06T12:50:45.818Z,0.20
2023-03-06T12:53:25.406Z,1.05
2023-03-06T12:55:53.971Z,1.50
2023-03-06T12:58:32.384Z,0.65
2023-03-06T13:01:41.941Z,0.95
2023-03-06T13:04:46.397Z,1.08
2023-03-06T13:07:35.711Z,3.42
2023-03-06T13:10:33.593Z,0.40
2023-03-06T13:13:05.059Z,2.15
2023-03-06T13:15:38.170Z,0.70
2023-03-06T13:18:42.773Z,3.75
2023-03-06T13:21:54.834Z,0.95
2023-03-06T13:24:25.695Z,2.95
2023-03-06T13:27:07.111Z,3.17
2023-03-06T13:29:37.159Z,0.82
2023-03-06T13:32:04.014Z,1.73
2023-03-06T13:34:51.780Z,1.17
2023-03-06T13:37:19.506Z,0.52
2023-03-06T13:39:55.288Z,3.00
2023-03-06T13:45:23.023Z,2.55
2023-03-06T13:48:33.866Z,0.60
2023-03-06T13:50:47.681Z,3.03
2023-03-06T13:53:46.524Z,1.38
2023-03-06T13:56:33.215Z,1.67
2023-03-06T13:59:30.508Z,0.88
2023-03-06T14:02:52.905Z,1.00
2023-03-06T14:05:20.095Z,0.85
2023-03-06T14:08:02.102Z,1.00
2023-03-06T14:10:34.700Z,0.85
2023-03-06T14:13:06.920Z,2.10
2023-03-06T14:15:50.125Z,1.45
2023-03-06T14:18:23.829Z,2.20
2023-03-06T14:21:01.071Z,4.68
2023-03-06T14:23:32.181Z,1.15
2023-03-06T14:26:15.351Z,2.08
2023-03-06T14:29:04.968Z,2.08
2023-03-06T14:31:37.570Z,1.85
2023-03-06T14:34:08.144Z,3.13
2023-03-06T14:36:44.525Z,1.45
2023-03-06T14:39:17.910Z,4.57
2023-03-06T14:41:44.831Z,2.88
2023-03-06T14:44:21.873Z,2.80
2023-03-06T14:46:55.832Z,4.00
2023-03-06T14:49:25.425Z,3.70
2023-03-06T14:52:00.605Z,3.45
2023-03-06T14:54:30.108Z,3.80
2023-03-06T14:57:07.944Z,3.75
2023-03-06T14:59:46.805Z,6.00
2023-03-06T15:02:21.729Z,4.55
2023-03-06T15:04:54.958Z,5.70
2023-03-06T15:07:31.294Z,5.40
2023-03-06T15:09:59.032Z,7.45
2023-03-06T15:12:29.791Z,9.93
2023-03-06T15:15:20.074Z,4.95
2023-03-06T15:17:48.623Z,6.13
2023-03-06T15:20:42.486Z,9.57
2023-03-06T15:23:18.424Z,6.75
2023-03-06T15:25:57.759Z,10.95
2023-03-06T15:28:35.171Z,6.85
2023-03-06T15:31:24.503Z,6.45
2023-03-06T15:34:11.653Z,6.90
2023-03-06T15:36:50.115Z,6.32
2023-03-06T15:39:31.776Z,7.25
2023-03-06T15:42:21.793Z,7.47
2023-03-06T15:44:55.672Z,4.63
2023-03-06T15:47:23.807Z,6.63
2023-03-06T15:49:53.234Z,5.30
2023-03-06T15:52:21.994Z,5.70
2023-03-06T15:54:49.496Z,6.88
2023-03-06T15:57:28.173Z,6.22
2023-03-06T15:59:56.562Z,4.43
2023-03-06T16:02:24.419Z,3.42
2023-03-06T16:04:52.408Z,6.30
2023-03-06T16:07:20.571Z,6.50
2023-03-06T16:09:47.548Z,5.15
2023-03-06T16:12:18.107Z,12.38
2023-03-06T16:14:47.636Z,4.90
2023-03-06T16:17:15.366Z,9.52
2023-03-06T16:19:43.385Z,7.35
2023-03-06T16:22:10.515Z,8.02
2023-03-06T16:24:37.573Z,6.32
2023-03-06T16:27:04.877Z,7.20
2023-03-06T16:29:32.138Z,10.48
2023-03-06T16:32:01.936Z,10.35
2023-03-06T16:34:29.048Z,11.63
2023-03-06T16:36:56.116Z,11.13
2023-03-06T16:39:24.097Z,8.93
2023-03-06T16:41:51.777Z,11.82
2023-03-06T16:44:19.810Z,8.18
2023-03-06T16:46:49.661Z,8.98
2023-03-06T16:49:23.690Z,9.50
2023-03-06T16:51:51.848Z,14.20
2023-03-06T16:54:19.674Z,10.98
2023-03-06T16:56:46.607Z,11.23
2023-03-06T16:59:13.676Z,12.70
2023-03-06T17:01:44.859Z,17.05
2023-03-06T17:04:12.299Z,12.77
2023-03-06T17:06:39.836Z,20.58
2023-03-06T17:09:07.017Z,14.75
2023-03-06T17:11:38.405Z,15.32
2023-03-06T17:14:06.848Z,15.00
2023-03-06T17:16:33.983Z,13.25
2023-03-06T17:19:02.321Z,13.93
2023-03-06T17:21:30.336Z,17.10
2023-03-06T17:23:57.538Z,16.77
2023-03-06T17:26:24.663Z,13.40
2023-03-06T17:28:51.596Z,15.45
2023-03-06T17:31:26.598Z,15.23
2023-03-06T17:34:01.669Z,15.63
2023-03-06T17:36:31.178Z,18.30
2023-03-06T17:39:00.403Z,15.60
2023-03-06T17:41:27.597Z,16.50
2023-03-06T17:43:58.767Z,15.93
2023-03-06T17:46:26.281Z,20.48
2023-03-06T17:48:53.514Z,16.40
2023-03-06T17:51:20.539Z,19.67
2023-03-06T17:53:47.425Z,16.90
2023-03-06T17:56:15.011Z,19.95
2023-03-06T17:58:42.150Z,18.05
2023-03-06T18:01:19.059Z,20.48
2023-03-06T18:03:48.918Z,21.05
2023-03-06T18:06:17.682Z,23.75
2023-03-06T18:08:45.774Z,27.20
2023-03-06T18:11:13.816Z,25.92
2023-03-06T18:13:43.749Z,24.50
2023-03-06T18:16:13.775Z,26.92
2023-03-06T18:18:40.985Z,25.83
2023-03-06T18:21:11.367Z,29.00
2023-03-06T18:23:39.452Z,31.65
2023-03-06T18:26:12.018Z,31.67
2023-03-06T18:28:42.508Z,27.15
2023-03-06T18:31:34.660Z,32.55
2023-03-06T18:34:12.183Z,30.67
2023-03-06T18:36:40.493Z,32.85
2023-03-06T18:39:10.029Z,31.77
2023-03-06T18:41:37.265Z,32.30
2023-03-06T18:44:04.940Z,34.55
2023-03-06T18:46:37.967Z,38.63
2023-03-06T18:49:05.350Z,32.72
2023-03-06T18:51:33.016Z,31.55
2023-03-06T18:54:02.591Z,34.53
2023-03-06T18:56:29.586Z,34.38
2023-03-06T18:58:56.747Z,38.42
2023-03-06T19:01:23.910Z,34.03
2023-03-06T19:03:50.940Z,32.28
2023-03-06T19:06:18.463Z,37.97
2023-03-06T19:08:45.433Z,36.30
2023-03-06T19:11:15.854Z,34.88
2023-03-06T19:13:43.682Z,34.92
2023-03-06T19:16:19.493Z,38.00
2023-03-06T19:21:17.651Z,36.30
2023-03-06T19:23:44.712Z,36.55
2023-03-06T19:26:12.374Z,35.30
2023-03-06T19:28:41.300Z,37.38
2023-03-06T19:31:28.084Z,40.03
2023-03-06T19:33:56.949Z,33.13
2023-03-06T19:36:28.605Z,38.08
2023-03-06T19:38:58.482Z,36.22
2023-03-06T19:41:26.857Z,35.70
2023-03-06T19:43:58.306Z,36.25
2023-03-06T19:46:27.242Z,36.85
2023-03-06T19:48:57.745Z,38.17
2023-03-06T19:51:25.524Z,35.00
2023-03-06T19:53:52.825Z,37.67
2023-03-06T19:56:23.247Z,34.42
2023-03-06T19:58:51.064Z,31.42
2023-03-06T20:01:20.522Z,35.97
2023-03-06T20:03:47.723Z,28.98
2023-03-06T20:06:18.473Z,34.10
2023-03-06T20:08:46.794Z,33.20
2023-03-06T20:11:24.067Z,34.80
2023-03-06T20:13:51.373Z,32.47
2023-03-06T20:16:18.862Z,29.00
2023-03-06T20:18:46.031Z,29.92
2023-03-06T20:21:13.322Z,32.55
2023-03-06T20:23:40.532Z,33.30
2023-03-06T20:26:12.026Z,32.80
2023-03-06T20:28:40.342Z,28.38
2023-03-06T20:31:13.695Z,39.40
2023-03-06T20:33:40.752Z,28.13
2023-03-06T20:36:17.484Z,28.60
2023-03-06T20:38:44.761Z,29.33
2023-03-06T20:41:23.981Z,33.72
2023-03-06T20:43:51.479Z,25.00
2023-03-06T20:46:20.367Z,29.00
2023-03-06T20:48:53.241Z,29.50
2023-03-06T20:51:32.263Z,31.10
2023-03-06T20:54:01.252Z,33.95
2023-03-06T20:56:32.118Z,37.33
2023-03-06T20:58:59.530Z,32.90
2023-03-06T21:01:33.067Z,33.47
2023-03-06T21:04:01.339Z,28.80
2023-03-06T21:06:29.123Z,32.45
2023-03-06T21:08:57.481Z,26.90
2023-03-06T21:11:25.152Z,34.00
2023-03-06T21:13:55.809Z,33.10
2023-03-06T21:16:25.463Z,35.03
2023-03-06T21:18:54.920Z,32.42
2023-03-06T21:21:25.531Z,31.20
2023-03-06T21:23:53.105Z,35.55
2023-03-06T21:26:23.337Z,31.77
2023-03-06T21:28:50.820Z,35.30
2023-03-06T21:31:21.228Z,33.40
2023-03-06T21:33:49.774Z,33.85
2023-03-06T21:36:19.317Z,32.88
2023-03-06T21:38:48.632Z,26.40
2023-03-06T21:41:18.636Z,32.80
2023-03-06T21:43:45.655Z,33.05
2023-03-06T21:46:13.114Z,28.90
2023-03-06T21:48:40.186Z,34.75
2023-03-06T21:51:19.114Z,32.78
2023-03-06T21:53:48.231Z,30.52
2023-03-06T21:56:18.971Z,36.05
2023-03-06T21:58:46.451Z,37.50
2023-03-06T22:01:26.699Z,31.75
2023-03-06T22:03:54.688Z,34.53
2023-03-06T22:06:25.403Z,31.33
2023-03-06T22:08:53.758Z,30.95
2023-03-06T22:11:23.879Z,27.80
2023-03-06T22:13:53.143Z,27.73
2023-03-06T22:16:20.861Z,33.75
2023-03-06T22:18:50.264Z,31.80
2023-03-06T22:21:20.642Z,31.83
2023-03-06T22:24:00.050Z,32.22
2023-03-06T22:26:28.962Z,29.42
2023-03-06T22:28:56.337Z,29.30
2023-03-06T22:31:28.401Z,32.25
2023-03-06T22:33:58.423Z,26.02
2023-03-06T22:36:26.779Z,27.60
2023-03-06T22:38:59.581Z,27.15
2023-03-06T22:41:27.436Z,26.95
2023-03-06T22:43:59.734Z,25.88
2023-03-06T22:46:27.735Z,22.15
2023-03-06T22:49:00.056Z,21.00
2023-03-06T22:51:29.467Z,28.20
2023-03-06T22:53:56.575Z,20.98
2023-03-06T22:56:23.936Z,22.80
2023-03-06T22:58:50.887Z,24.17
2023-03-06T23:01:21.664Z,17.52
2023-03-06T23:03:54.977Z,18.02
2023-03-06T23:06:35.167Z,15.77
2023-03-06T23:09:16.083Z,15.60
2023-03-06T23:12:01.795Z,19.27
2023-03-06T23:14:49.719Z,15.82
2023-03-06T23:17:35.370Z,15.90
2023-03-06T23:20:21.557Z,15.23
2023-03-06T23:23:07.562Z,15.10
2023-03-06T23:25:44.333Z,15.32
2023-03-06T23:28:11.787Z,12.82
2023-03-06T23:30:39.794Z,15.75
2023-03-06T23:33:07.101Z,16.67
2023-03-06T23:35:35.661Z,13.55
2023-03-06T23:38:02.818Z,13.55
2023-03-06T23:40:33.560Z,12.18
2023-03-06T23:43:00.602Z,12.85
2023-03-06T23:45:27.625Z,14.05
2023-03-06T23:47:54.594Z,10.75
2023-03-06T23:50:23.026Z,12.38
2023-03-06T23:52:55.595Z,12.20
2023-03-06T23:55:22.573Z,11.52
2023-03-06T23:57:49.450Z,11.35
